Airfield :







YOU CAN JOIN US ON...

 
LOGIN :

Register | Disclaimer

   EN    FR    IT 

 









Legend :    VFR   Marginal VFR   IFR   Intensive IFR   Very Intensive IFR
Visi :
Ceiling :
>= 8 km
>= 3000ft
5 to 8 km
1000 to 3000 ft
1500m to 5 km
500 to 1000 ft
800 to 1500m
200 to 500 ft
< 800m
< 200 ft
Symbols :   Thunderstorms  Fog  Heavy snow  Heavy precipitations  Wind > 20 kt






- Airport Elevation : 342 ft


KCON - Concord Municipal

CURRENT METAR :
  • 182151Z AUTO 28007KT 10SM FEW070 28/13 A2986 RMK AO2 SLP108 T02780133

EXPIRED METARs :
  • 182051Z AUTO 27005KT 10SM CLR 28/13 A2985 RMK AO2 SLP106 T02780128 50003
  • 181951Z AUTO 29010KT 10SM CLR 29/13 A2985 RMK AO2 SLP106 T02940133
  • 181851Z AUTO 27009KT 10SM FEW065 30/14 A2984 RMK AO2 SLP102 T03000139
  • 181751Z AUTO 30005G16KT 10SM FEW060 30/16 A2984 RMK AO2 SLP102 T03000156 10300 20233 56005

TAF KCON
Valid from the 18 at 18:00 until the 19 at 18:00 UTC


181726Z 1818/1918 29008G15KT P6SM FEW050 SCT070 SCT250
FM190100 31005KT P6SM SKC
KZBW FIR / North America



MET'MAP, your aeronautical weather chart ! - Copyright ORBIFLY December 2007 - Disclaimer

ORBIFLY MET'MAP TEAM :

Programming & Development : Alexandra Zaïnal
Original concept : Baudouin d'Aumeries
Technical & hardware support : Manuel Goepfert
Assistance : Marc-Olivier Méhu




SOURCES & CREDITS :

   NOAA